EGTC - Cranfield
Distance from station: E 5mi, 14km
Updated: 08/15/2018 4:20am
Mostly Cloudy
Mostly Cloudy
 Wind from WSW
Wind: WSW 15 mph , 24 km/h
Temperature: 75°F , 24°C
Dew Point: 61°F , 16°C
Humidity: 61%
Barometer: 30 inHg , 1016 hPa
Clouds: Mostly Cloudy
Visibility: 6 miles , 10 km
Cloud details: Partly Cloudy 2500 ft
Mostly Cloudy 4400 ft
2018/08/15 11:20 EGTC 151120Z 24013KT 210V280 9999 SCT025 BKN044 24/16 Q1016